Street, Maryland
Current Conditions -  °F | °C
As of 6:56 AM on Thursday 29 Jan 2015 (Local Time) from KAPG Reporting Station
Clear Clear  
Wind Chill: 16°   Ceiling: Unl
Heat Index: 16°   Visibility: 7mi
Dew Point:   Wind: 0mph
Humidity: 62%   Direction: NA
Pressure: 30.33"   Gusts: NA
Location:  39.67°N, 76.38°W
Report Text: KAPG 291156Z 00000KT 7SM SKC M09/M15 A3033
Loading
Personal Weather Stations






























Interactive Weather Map New forecast layout! Learn more

10-Day Weather Forecast

Advertisements
Track Severe Weather on mobile